createdAt,value
2023-11-01T00:03:26.733Z,100208.48
2023-11-01T00:08:52.515Z,100210.50
2023-11-01T00:14:18.236Z,100212.64
2023-11-01T00:19:43.949Z,100213.59
2023-11-01T00:25:09.600Z,100214.50
2023-11-01T00:30:35.554Z,100216.95
2023-11-01T00:36:01.224Z,100227.89
2023-11-01T00:41:27.485Z,100224.94
2023-11-01T00:46:53.191Z,100228.80
2023-11-01T00:52:18.872Z,100237.31
2023-11-01T00:57:44.619Z,100240.95
2023-11-01T01:03:10.021Z,100239.25
2023-11-01T01:08:36.017Z,100237.07
2023-11-01T01:14:01.692Z,100237.21
2023-11-01T01:19:21.038Z,100232.83
2023-11-01T01:24:46.708Z,100235.46
2023-11-01T01:30:12.388Z,100236.38
2023-11-01T01:35:38.366Z,100243.25
2023-11-01T01:41:04.488Z,100239.14
2023-11-01T01:46:33.981Z,100240.77
2023-11-01T01:52:00.096Z,100235.75
2023-11-01T01:57:26.731Z,100232.40
2023-11-01T02:02:52.495Z,100231.13
2023-11-01T02:08:18.321Z,100235.27
2023-11-01T02:13:44.217Z,100235.64
2023-11-01T02:19:09.962Z,100231.91
2023-11-01T02:24:35.678Z,100233.52
2023-11-01T02:30:03.438Z,100242.10
2023-11-01T02:35:30.188Z,100239.20
2023-11-01T02:40:49.206Z,100230.84
2023-11-01T02:46:15.037Z,100230.00
2023-11-01T02:51:40.732Z,100229.66
2023-11-01T02:57:06.369Z,100220.30
2023-11-01T03:02:32.111Z,100222.49
2023-11-01T03:07:58.016Z,100227.45
2023-11-01T03:13:23.719Z,100227.43
2023-11-01T03:18:49.350Z,100228.69
2023-11-01T03:24:13.357Z,100226.47
2023-11-01T03:29:39.078Z,100231.48
2023-11-01T03:35:04.784Z,100229.48
2023-11-01T03:40:31.086Z,100226.91
2023-11-01T03:45:58.490Z,100227.83
2023-11-01T03:51:24.466Z,100236.96
2023-11-01T03:56:50.208Z,100239.85
2023-11-01T04:02:15.964Z,100243.83
2023-11-01T04:07:41.659Z,100252.48
2023-11-01T04:13:07.439Z,100250.25
2023-11-01T04:18:23.893Z,100246.59
2023-11-01T04:23:49.569Z,100238.34
2023-11-01T04:29:15.627Z,100231.27
2023-11-01T04:34:41.294Z,100226.47
2023-11-01T04:40:06.950Z,100220.67
2023-11-01T04:45:33.687Z,100207.64
2023-11-01T04:50:49.235Z,100214.91
2023-11-01T04:56:15.500Z,100217.27
2023-11-01T05:01:41.209Z,100212.81
2023-11-01T05:06:57.761Z,100213.35
2023-11-01T05:12:23.486Z,100202.76
2023-11-01T05:17:47.923Z,100202.49
2023-11-01T05:23:13.634Z,100205.81
2023-11-01T05:28:39.561Z,100205.06
2023-11-01T05:33:58.871Z,100203.77
2023-11-01T05:39:24.517Z,100210.60
2023-11-01T05:44:50.382Z,100212.27
2023-11-01T05:50:16.151Z,100210.11
2023-11-01T05:55:54.750Z,100217.44
2023-11-01T06:01:28.140Z,100222.51
2023-11-01T06:06:36.434Z,100220.29
2023-11-01T06:12:02.229Z,100222.30
2023-11-01T06:17:27.926Z,100219.66
2023-11-01T06:22:53.635Z,100221.88
2023-11-01T06:28:19.975Z,100217.05
2023-11-01T06:33:45.677Z,100224.89
2023-11-01T06:39:11.374Z,100225.58
2023-11-01T06:44:29.671Z,100227.93
2023-11-01T06:49:55.287Z,100235.27
2023-11-01T06:55:21.090Z,100242.37
2023-11-01T07:00:46.779Z,100240.64
2023-11-01T07:06:11.349Z,100238.52
2023-11-01T07:11:37.032Z,100234.83
2023-11-01T07:17:02.974Z,100226.84
2023-11-01T07:22:28.643Z,100225.73
2023-11-01T07:27:54.309Z,100229.05
2023-11-01T07:33:20.035Z,100226.92
2023-11-01T07:38:45.817Z,100224.30
2023-11-01T07:44:11.711Z,100220.97
2023-11-01T07:49:38.461Z,100222.40
2023-11-01T07:55:04.393Z,100222.94
2023-11-01T08:00:31.522Z,100215.81
2023-11-01T08:05:57.212Z,100209.67
2023-11-01T08:11:22.940Z,100198.35
2023-11-01T08:16:48.757Z,100203.89
2023-11-01T08:22:14.478Z,100206.86
2023-11-01T08:27:40.236Z,100198.39
2023-11-01T08:33:06.105Z,100194.31
2023-11-01T08:38:31.825Z,100195.86
2023-11-01T08:43:57.477Z,100195.27
2023-11-01T08:49:23.293Z,100188.77
2023-11-01T08:54:48.963Z,100186.14
2023-11-01T09:00:21.577Z,100189.77
2023-11-01T09:05:47.897Z,100184.19
2023-11-01T09:11:13.932Z,100184.72
2023-11-01T09:16:39.759Z,100182.17
2023-11-01T09:22:05.504Z,100181.08
2023-11-01T09:27:32.252Z,100184.70
2023-11-01T09:32:59.330Z,100180.16
2023-11-01T09:38:25.372Z,100171.27
2023-11-01T09:43:52.372Z,100160.63
2023-11-01T09:49:18.703Z,100156.00
2023-11-01T09:54:34.182Z,100159.88
2023-11-01T10:00:00.908Z,100162.03
2023-11-01T10:05:26.806Z,100155.73
2023-11-01T10:10:53.275Z,100144.64
2023-11-01T10:16:19.072Z,100145.61
2023-11-01T10:21:50.705Z,100140.63
2023-11-01T10:27:19.028Z,100127.52
2023-11-01T10:32:44.848Z,100123.02
2023-11-01T10:38:17.636Z,100123.61
2023-11-01T10:43:45.974Z,100111.36
2023-11-01T10:49:14.084Z,100099.14
2023-11-01T10:54:33.884Z,100090.39
2023-11-01T10:59:59.315Z,100083.81
2023-11-01T11:05:16.173Z,100070.95
2023-11-01T11:10:32.527Z,100059.89
2023-11-01T11:16:15.722Z,100055.98
2023-11-01T11:22:18.257Z,100049.16
2023-11-01T11:28:12.388Z,100039.15
2023-11-01T11:33:38.191Z,100037.11
2023-11-01T11:39:12.292Z,100033.74
2023-11-01T11:44:38.595Z,100031.11
2023-11-01T11:50:04.796Z,100028.03
2023-11-01T11:55:30.813Z,100029.84
2023-11-01T12:00:56.610Z,100022.30
2023-11-01T12:06:15.011Z,100013.95
2023-11-01T12:11:40.796Z,100008.23
2023-11-01T12:17:06.834Z,100002.53
2023-11-01T12:22:33.375Z,99994.80
2023-11-01T12:27:59.186Z,99995.38
2023-11-01T12:33:40.482Z,99995.79
2023-11-01T12:39:07.749Z,99983.59
2023-11-01T12:44:33.432Z,99980.67
2023-11-01T12:50:02.755Z,99976.28
2023-11-01T12:55:29.286Z,99971.06
2023-11-01T13:00:47.761Z,99962.97
2023-11-01T13:06:13.715Z,99962.48
2023-11-01T13:11:39.545Z,99958.39
2023-11-01T13:17:05.247Z,99960.98
2023-11-01T13:22:31.014Z,99967.34
2023-11-01T13:27:56.681Z,99966.83
2023-11-01T13:33:16.433Z,99956.20
2023-11-01T13:38:42.313Z,99955.64
2023-11-01T13:44:08.039Z,99954.19
2023-11-01T13:49:33.815Z,99948.81
2023-11-01T13:54:59.578Z,99943.73
2023-11-01T14:00:26.224Z,99942.77
2023-11-01T14:05:53.667Z,99943.11
2023-11-01T14:11:20.145Z,99937.90
2023-11-01T14:16:46.753Z,99931.23
2023-11-01T14:22:12.537Z,99926.04
2023-11-01T14:27:38.286Z,99922.20
2023-11-01T14:33:04.007Z,99920.23
2023-11-01T14:38:29.858Z,99916.14
2023-11-01T14:43:57.737Z,99910.00
2023-11-01T14:49:24.304Z,99908.21
2023-11-01T14:54:50.071Z,99905.88
2023-11-01T15:00:16.058Z,99899.80
2023-11-01T15:05:42.919Z,99898.52
2023-11-01T15:11:08.581Z,99890.04
2023-11-01T15:16:35.757Z,99883.11
2023-11-01T15:22:03.024Z,99874.23
2023-11-01T15:27:28.794Z,99862.04
2023-11-01T15:32:54.636Z,99857.74
2023-11-01T15:38:20.436Z,99848.95
2023-11-01T15:43:46.236Z,99844.05
2023-11-01T15:49:11.910Z,99838.51
2023-11-01T15:54:37.715Z,99832.21
2023-11-01T16:00:03.677Z,99827.10
2023-11-01T16:05:29.752Z,99821.45
2023-11-01T16:10:55.510Z,99818.70
2023-11-01T16:16:21.183Z,99820.75
2023-11-01T16:21:47.004Z,99825.58
2023-11-01T16:27:13.132Z,99816.42
2023-11-01T16:32:39.190Z,99813.89
2023-11-01T16:38:05.897Z,99813.23
2023-11-01T16:43:31.302Z,99820.48
2023-11-01T16:49:01.756Z,99816.86
2023-11-01T16:54:29.398Z,99814.05
2023-11-01T16:59:56.099Z,99815.27
2023-11-01T17:05:22.782Z,99810.58
2023-11-01T17:10:39.494Z,99817.03
2023-11-01T17:16:05.316Z,99818.02
2023-11-01T17:21:33.767Z,99818.56
2023-11-01T17:26:59.586Z,99826.52
2023-11-01T17:32:26.512Z,99831.69
2023-11-01T17:37:55.115Z,99832.80
2023-11-01T17:43:33.520Z,99828.91
2023-11-01T17:49:02.882Z,99821.65
2023-11-01T17:54:36.073Z,99819.19
2023-11-01T18:00:02.680Z,99821.71
2023-11-01T18:05:52.457Z,99821.28
2023-11-01T18:11:18.525Z,99815.64
2023-11-01T18:16:44.052Z,99813.45
2023-11-01T18:22:09.798Z,99807.14
2023-11-01T18:27:42.959Z,99800.34
2023-11-01T18:33:08.693Z,99801.98
2023-11-01T18:38:39.261Z,99802.42
2023-11-01T18:44:05.941Z,99798.17
2023-11-01T18:49:41.591Z,99785.61
2023-11-01T18:55:10.342Z,99781.63
2023-11-01T19:00:47.582Z,99777.48
2023-11-01T19:06:15.825Z,99774.68
2023-11-01T19:11:41.862Z,99772.34
2023-11-01T19:16:59.300Z,99774.33
2023-11-01T19:22:25.587Z,99765.66
2023-11-01T19:27:37.865Z,99764.10
2023-11-01T19:33:06.108Z,99761.54
2023-11-01T19:38:27.448Z,99763.89
2023-11-01T19:43:56.365Z,99759.86
2023-11-01T19:49:13.560Z,99757.96
2023-11-01T19:54:33.913Z,99756.05
2023-11-01T20:00:07.930Z,99744.19
2023-11-01T20:05:35.506Z,99742.64
2023-11-01T20:11:02.644Z,99737.28
2023-11-01T20:16:31.298Z,99736.65
2023-11-01T20:21:59.047Z,99730.01
2023-11-01T20:27:27.037Z,99728.45
2023-11-01T20:32:55.396Z,99722.17
2023-11-01T20:38:22.464Z,99708.52
2023-11-01T20:43:48.235Z,99700.83
2023-11-01T20:49:16.558Z,99696.64
2023-11-01T20:54:43.516Z,99691.40
2023-11-01T21:00:10.387Z,99692.90
2023-11-01T21:05:38.013Z,99683.79
2023-11-01T21:11:05.573Z,99682.71
2023-11-01T21:16:32.659Z,99667.39
2023-11-01T21:22:01.801Z,99664.79
2023-11-01T21:27:30.062Z,99669.11
2023-11-01T21:32:57.065Z,99667.50
2023-11-01T21:38:25.724Z,99656.54
2023-11-01T21:43:56.443Z,99650.34
2023-11-01T21:49:35.533Z,99628.91
2023-11-01T21:55:01.254Z,99621.98
2023-11-01T22:00:36.746Z,99621.85
2023-11-01T22:06:02.658Z,99607.23
2023-11-01T22:11:33.149Z,99606.96
2023-11-01T22:17:01.057Z,99613.96
2023-11-01T22:22:33.684Z,99607.75
2023-11-01T22:28:05.805Z,99599.63
2023-11-01T22:33:36.756Z,99592.73
2023-11-01T22:39:02.513Z,99593.09
2023-11-01T22:44:28.449Z,99592.10
2023-11-01T22:49:54.302Z,99584.41
2023-11-01T22:55:19.965Z,99580.24
2023-11-01T23:00:51.759Z,99582.82
2023-11-01T23:06:17.500Z,99590.44
2023-11-01T23:11:43.212Z,99574.73
2023-11-01T23:17:08.894Z,99576.36
2023-11-01T23:22:34.624Z,99579.25
2023-11-01T23:28:00.272Z,99568.93
2023-11-01T23:33:26.102Z,99558.33
2023-11-01T23:39:01.768Z,99547.48
2023-11-01T23:44:27.671Z,99534.08
2023-11-01T23:50:16.719Z,99518.84
2023-11-01T23:55:42.815Z,99509.20
